Coxhoe, United Kingdom
Current Conditions -  °F | °C
As of 1:50 PM on Friday 24 Oct 2014 (Local Time) from EGNV Reporting Station
Few Clouds Few Clouds  
Wind Chill: 59°   Ceiling: Unl
Heat Index: 59°   Visibility: 6mi
Dew Point: 41°   Wind: 14mph
Humidity: 51%   Direction: 210°SSW
Pressure: 29.83"   Gusts: NA
Location:  54.71°N, 1.5°W
Report Text: EGNV 241250Z 21012KT 9999 FEW030 15/05 Q1010
Loading
Personal Weather Stations






























Interactive Weather Map
Tropical Storm Tracking
New forecast layout! Learn more

10-Day Weather Forecast

Advertisements
Track Severe Weather on mobile